createdAt,value
2022-12-23T00:01:24.184Z,13.30
2022-12-23T00:03:56.348Z,14.25
2022-12-23T00:06:23.890Z,13.85
2022-12-23T00:08:58.394Z,13.68
2022-12-23T00:11:28.754Z,14.45
2022-12-23T00:14:20.545Z,15.82
2022-12-23T00:16:51.027Z,14.65
2022-12-23T00:19:18.815Z,14.93
2022-12-23T00:21:46.981Z,15.63
2022-12-23T00:24:14.407Z,15.25
2022-12-23T00:26:41.969Z,14.55
2022-12-23T00:29:09.415Z,14.77
2022-12-23T00:31:36.937Z,14.40
2022-12-23T00:34:04.460Z,16.00
2022-12-23T00:36:32.021Z,15.00
2022-12-23T00:39:18.712Z,14.07
2022-12-23T00:42:04.788Z,15.30
2022-12-23T00:44:32.459Z,15.50
2022-12-23T00:46:59.941Z,16.17
2022-12-23T00:49:42.482Z,15.88
2022-12-23T00:52:18.126Z,16.27
2022-12-23T00:54:45.577Z,16.38
2022-12-23T00:57:13.083Z,17.63
2022-12-23T00:59:40.515Z,18.23
2022-12-23T01:02:30.601Z,18.20
2022-12-23T01:05:24.241Z,19.38
2022-12-23T01:07:51.739Z,17.92
2022-12-23T01:10:19.240Z,17.73
2022-12-23T01:12:46.661Z,19.33
2022-12-23T01:15:14.254Z,20.30
2022-12-23T01:17:41.671Z,20.23
2022-12-23T01:20:09.672Z,19.98
2022-12-23T01:22:37.113Z,18.50
2022-12-23T01:25:05.097Z,18.42
2022-12-23T01:27:32.559Z,17.13
2022-12-23T01:30:00.075Z,18.90
2022-12-23T01:32:27.542Z,18.15
2022-12-23T01:34:54.988Z,18.15
2022-12-23T01:37:22.839Z,19.00
2022-12-23T01:39:50.314Z,18.40
2022-12-23T01:42:39.326Z,18.60
2022-12-23T01:45:21.301Z,16.83
2022-12-23T01:47:55.960Z,18.05
2022-12-23T01:50:46.677Z,17.05
2022-12-23T01:53:24.316Z,17.02
2022-12-23T01:55:59.243Z,18.35
2022-12-23T01:58:34.612Z,16.45
2022-12-23T02:01:21.407Z,18.15
2022-12-23T02:03:54.782Z,17.10
2022-12-23T02:06:46.750Z,17.92
2022-12-23T02:12:38.587Z,16.23
2022-12-23T02:15:52.133Z,17.17
2022-12-23T02:19:12.106Z,16.50
2022-12-23T02:22:00.982Z,17.65
2022-12-23T02:25:14.220Z,18.02
2022-12-23T02:28:35.740Z,17.83
2022-12-23T02:31:23.949Z,17.50
2022-12-23T02:34:16.628Z,17.42
2022-12-23T02:37:04.824Z,18.63
2022-12-23T02:40:01.383Z,16.85
2022-12-23T02:42:47.316Z,17.15
2022-12-23T02:45:35.242Z,15.60
2022-12-23T02:48:22.031Z,16.52
2022-12-23T02:50:54.638Z,15.88
2022-12-23T02:53:32.233Z,16.05
2022-12-23T02:56:03.674Z,15.73
2022-12-23T02:58:45.062Z,16.17
2022-12-23T03:01:16.368Z,17.05
2022-12-23T03:03:47.671Z,16.05
2022-12-23T03:06:25.645Z,15.82
2022-12-23T03:08:59.063Z,16.15
2022-12-23T03:11:40.236Z,14.75
2022-12-23T03:14:36.440Z,15.80
2022-12-23T03:17:30.634Z,15.40
2022-12-23T03:20:11.617Z,15.55
2022-12-23T03:22:55.420Z,14.87
2022-12-23T03:25:44.946Z,14.80
2022-12-23T03:28:41.613Z,16.38
2022-12-23T03:31:17.213Z,15.13
2022-12-23T03:33:53.310Z,15.20
2022-12-23T03:36:28.455Z,15.48
2022-12-23T03:38:57.375Z,16.00
2022-12-23T03:41:33.110Z,15.20
2022-12-23T03:44:13.758Z,14.98
2022-12-23T03:46:50.300Z,15.35
2022-12-23T03:49:31.159Z,14.20
2022-12-23T03:52:21.164Z,14.10
2022-12-23T03:54:57.799Z,13.10
2022-12-23T03:57:40.299Z,13.32
2022-12-23T04:00:08.844Z,11.30
2022-12-23T04:03:02.798Z,11.77
2022-12-23T04:05:37.584Z,11.82
2022-12-23T04:08:21.527Z,11.27
2022-12-23T04:10:50.056Z,12.43
2022-12-23T04:13:17.554Z,11.75
2022-12-23T04:15:45.544Z,11.70
2022-12-23T04:18:13.049Z,13.60
2022-12-23T04:20:40.589Z,13.30
2022-12-23T04:23:08.083Z,13.05
2022-12-23T04:25:35.567Z,13.98
2022-12-23T04:28:03.245Z,14.10
2022-12-23T04:30:34.356Z,14.93
2022-12-23T04:35:31.188Z,13.73
2022-12-23T04:37:58.636Z,14.43
2022-12-23T04:40:26.138Z,14.95
2022-12-23T04:42:53.672Z,15.40
2022-12-23T04:45:21.171Z,14.35
2022-12-23T04:47:48.675Z,14.93
2022-12-23T04:50:17.257Z,15.02
2022-12-23T04:52:44.783Z,14.52
2022-12-23T04:55:12.270Z,15.45
2022-12-23T04:57:40.042Z,15.77
2022-12-23T05:00:08.519Z,13.85
2022-12-23T05:02:36.101Z,14.52
2022-12-23T05:05:04.461Z,14.07
2022-12-23T05:07:32.034Z,12.82
2022-12-23T05:10:02.000Z,13.48
2022-12-23T05:12:31.213Z,12.52
2022-12-23T05:14:58.726Z,11.65
2022-12-23T05:17:26.226Z,11.85
2022-12-23T05:19:53.735Z,12.52
2022-12-23T05:22:21.202Z,11.68
2022-12-23T05:24:48.668Z,12.23
2022-12-23T05:27:16.450Z,12.10
2022-12-23T05:29:43.890Z,11.93
2022-12-23T05:32:11.389Z,13.23
2022-12-23T05:34:38.982Z,13.20
2022-12-23T05:37:06.760Z,13.18
2022-12-23T05:39:34.238Z,13.23
2022-12-23T05:42:01.725Z,12.80
2022-12-23T05:44:29.152Z,14.20
2022-12-23T05:46:56.625Z,15.00
2022-12-23T05:49:25.378Z,14.27
2022-12-23T05:51:52.889Z,14.40
2022-12-23T05:54:20.373Z,14.90
2022-12-23T05:56:47.926Z,15.15
2022-12-23T05:59:15.364Z,14.80
2022-12-23T06:01:42.924Z,16.40
2022-12-23T06:04:10.633Z,15.05
2022-12-23T06:06:38.271Z,16.63
2022-12-23T06:09:05.682Z,16.13
2022-12-23T06:11:33.137Z,14.95
2022-12-23T06:14:00.697Z,15.23
2022-12-23T06:16:28.274Z,15.13
2022-12-23T06:18:56.399Z,13.15
2022-12-23T06:21:25.526Z,12.45
2022-12-23T06:23:53.175Z,13.63
2022-12-23T06:26:20.989Z,14.73
2022-12-23T06:28:48.473Z,18.40
2022-12-23T06:31:16.231Z,18.42
2022-12-23T06:33:44.217Z,20.00
2022-12-23T06:36:11.747Z,22.17
2022-12-23T06:38:39.149Z,21.55
2022-12-23T06:41:07.686Z,22.00
2022-12-23T06:43:35.146Z,22.77
2022-12-23T06:46:02.768Z,22.80
2022-12-23T06:48:30.323Z,23.10
2022-12-23T06:50:57.755Z,23.17
2022-12-23T06:53:25.171Z,23.48
2022-12-23T06:56:01.149Z,24.15
2022-12-23T06:58:28.818Z,22.50
2022-12-23T07:00:56.609Z,22.70
2022-12-23T07:03:24.118Z,21.90
2022-12-23T07:05:52.335Z,22.83
2022-12-23T07:08:20.753Z,22.77
2022-12-23T07:10:48.198Z,21.63
2022-12-23T07:13:16.865Z,22.35
2022-12-23T07:15:44.298Z,22.35
2022-12-23T07:18:11.724Z,22.48
2022-12-23T07:20:39.361Z,20.58
2022-12-23T07:23:06.858Z,21.55
2022-12-23T07:25:34.277Z,20.75
2022-12-23T07:28:01.725Z,19.77
2022-12-23T07:30:29.307Z,20.60
2022-12-23T07:32:56.942Z,19.83
2022-12-23T07:35:25.617Z,21.25
2022-12-23T07:37:55.614Z,20.77
2022-12-23T07:40:25.047Z,18.35
2022-12-23T07:42:58.717Z,17.65
2022-12-23T07:45:28.958Z,19.02
2022-12-23T07:48:00.030Z,17.13
2022-12-23T07:50:28.529Z,17.92
2022-12-23T07:52:56.333Z,16.77
2022-12-23T07:55:23.908Z,15.10
2022-12-23T07:57:52.946Z,16.80
2022-12-23T08:00:21.167Z,17.33
2022-12-23T08:02:49.127Z,16.77
2022-12-23T08:05:16.913Z,17.38
2022-12-23T08:07:45.303Z,18.00
2022-12-23T08:10:13.111Z,18.75
2022-12-23T08:12:40.766Z,19.17
2022-12-23T08:15:09.381Z,18.83
2022-12-23T08:17:36.820Z,21.40
2022-12-23T08:20:04.752Z,20.75
2022-12-23T08:22:32.243Z,20.27
2022-12-23T08:24:59.918Z,21.70
2022-12-23T08:27:27.508Z,23.70
2022-12-23T08:29:55.937Z,23.05
2022-12-23T08:32:27.439Z,23.25
2022-12-23T08:34:58.047Z,23.27
2022-12-23T08:37:25.738Z,25.08
2022-12-23T08:39:53.286Z,26.10
2022-12-23T08:42:20.763Z,29.08
2022-12-23T08:44:48.195Z,30.02
2022-12-23T08:47:15.721Z,28.40
2022-12-23T08:49:43.199Z,28.67
2022-12-23T08:52:10.731Z,29.42
2022-12-23T08:54:38.192Z,27.55
2022-12-23T08:57:05.778Z,30.00
2022-12-23T08:59:33.335Z,30.63
2022-12-23T09:02:02.163Z,29.60
2022-12-23T09:04:29.775Z,29.08
2022-12-23T09:06:57.279Z,29.80
2022-12-23T09:09:24.707Z,30.38
2022-12-23T09:11:52.240Z,30.65
2022-12-23T09:14:19.726Z,30.70
2022-12-23T09:16:51.781Z,32.95
2022-12-23T09:19:19.361Z,32.20
2022-12-23T09:21:46.777Z,29.35
2022-12-23T09:24:14.262Z,31.48
2022-12-23T09:26:41.701Z,30.80
2022-12-23T09:29:09.146Z,27.55
2022-12-23T09:31:38.062Z,28.55
2022-12-23T09:34:06.220Z,28.70
2022-12-23T09:36:33.954Z,27.75
2022-12-23T09:39:01.431Z,27.98
2022-12-23T09:42:01.505Z,27.88
2022-12-23T09:45:11.514Z,26.10
2022-12-23T09:47:42.896Z,24.55
2022-12-23T09:50:30.136Z,25.40
2022-12-23T09:53:00.763Z,23.15
2022-12-23T09:56:00.323Z,24.35
2022-12-23T09:59:22.047Z,23.23
2022-12-23T10:02:05.457Z,21.95
2022-12-23T10:05:02.824Z,23.42
2022-12-23T10:07:40.975Z,21.65
2022-12-23T10:10:39.207Z,23.60
2022-12-23T10:13:21.181Z,22.00
2022-12-23T10:15:52.050Z,20.38
2022-12-23T10:18:42.267Z,20.60
2022-12-23T10:21:26.318Z,20.48
2022-12-23T10:23:55.324Z,21.00
2022-12-23T10:26:25.872Z,19.85
2022-12-23T10:29:05.236Z,20.38
2022-12-23T10:32:01.318Z,19.08
2022-12-23T10:35:08.232Z,19.15
2022-12-23T10:37:55.340Z,17.83
2022-12-23T10:41:08.910Z,17.55
2022-12-23T10:44:14.774Z,18.95
2022-12-23T10:46:53.239Z,17.17
2022-12-23T10:50:08.846Z,17.63
2022-12-23T10:52:43.062Z,18.00
2022-12-23T10:55:35.525Z,18.20
2022-12-23T10:58:14.537Z,17.55
2022-12-23T11:01:12.009Z,17.58
2022-12-23T11:04:01.803Z,18.05
2022-12-23T11:06:37.073Z,18.27
2022-12-23T11:09:12.498Z,16.05
2022-12-23T11:11:57.415Z,17.33
2022-12-23T11:14:50.796Z,17.45
2022-12-23T11:17:24.654Z,17.70
2022-12-23T11:20:20.203Z,16.63
2022-12-23T11:22:51.846Z,16.27
2022-12-23T11:25:27.663Z,15.35
2022-12-23T11:28:02.336Z,14.95
2022-12-23T11:30:35.365Z,15.00
2022-12-23T11:33:03.259Z,14.23
2022-12-23T11:35:37.456Z,15.38
2022-12-23T11:38:13.910Z,14.98
2022-12-23T11:40:46.915Z,15.73
2022-12-23T11:43:16.976Z,14.30
2022-12-23T11:45:44.454Z,13.93
2022-12-23T11:48:30.254Z,14.27
2022-12-23T11:51:01.874Z,13.38
2022-12-23T11:56:07.229Z,12.82
2022-12-23T11:58:47.495Z,13.20
2022-12-23T12:01:24.095Z,12.15
2022-12-23T12:03:59.627Z,12.10
2022-12-23T12:06:29.351Z,11.15
2022-12-23T12:09:00.001Z,11.90
2022-12-23T12:11:36.916Z,10.60
2022-12-23T12:14:08.362Z,11.05
2022-12-23T12:17:14.263Z,11.02
2022-12-23T12:20:02.550Z,10.55
2022-12-23T12:22:49.376Z,10.82
2022-12-23T12:25:25.214Z,10.27
2022-12-23T12:28:01.915Z,10.05
2022-12-23T12:30:43.696Z,10.65
2022-12-23T12:36:03.314Z,9.40
2022-12-23T12:38:37.961Z,10.27
2022-12-23T12:41:14.467Z,10.25
2022-12-23T12:44:36.876Z,10.82
2022-12-23T12:50:20.250Z,10.65
2022-12-23T12:52:53.940Z,10.68
2022-12-23T12:55:37.957Z,9.70
2022-12-23T12:58:18.681Z,10.85
2022-12-23T13:01:23.812Z,11.57
2022-12-23T13:04:40.610Z,11.45
2022-12-23T13:07:39.333Z,10.20
2022-12-23T13:10:21.982Z,11.20
2022-12-23T13:13:27.769Z,11.77
2022-12-23T13:16:16.384Z,12.00
2022-12-23T13:19:23.428Z,11.20
2022-12-23T13:22:15.335Z,11.25
2022-12-23T13:28:22.413Z,9.30
2022-12-23T13:31:14.814Z,9.07
2022-12-23T13:33:54.588Z,9.35
2022-12-23T13:37:07.114Z,9.25
2022-12-23T13:40:32.868Z,8.77
2022-12-23T13:43:13.449Z,8.88
2022-12-23T13:45:43.796Z,10.23
2022-12-23T13:48:48.302Z,9.05
2022-12-23T13:51:29.893Z,9.52
2022-12-23T13:54:36.067Z,9.68
2022-12-23T13:57:20.953Z,8.98
2022-12-23T14:00:32.445Z,8.48
2022-12-23T14:03:02.845Z,8.83
2022-12-23T14:05:41.123Z,8.93
2022-12-23T14:08:22.979Z,8.85
2022-12-23T14:13:40.677Z,8.02
2022-12-23T14:16:20.295Z,7.95
2022-12-23T14:19:18.759Z,7.53
2022-12-23T14:22:02.282Z,11.30
2022-12-23T14:25:39.762Z,21.27
2022-12-23T14:28:36.317Z,7.15
2022-12-23T14:31:05.967Z,6.55
2022-12-23T14:33:37.991Z,6.40
2022-12-23T14:36:26.682Z,7.45
2022-12-23T14:39:12.707Z,7.07
2022-12-23T14:41:55.619Z,8.23
2022-12-23T14:44:28.065Z,7.85
2022-12-23T14:46:58.208Z,7.50
2022-12-23T14:49:44.023Z,6.60
2022-12-23T14:52:44.248Z,6.65
2022-12-23T14:55:31.307Z,6.47
2022-12-23T14:58:20.181Z,6.10
2022-12-23T15:00:52.883Z,6.28
2022-12-23T15:03:20.710Z,5.75
2022-12-23T15:05:49.095Z,5.50
2022-12-23T15:08:33.090Z,6.38
2022-12-23T15:11:00.987Z,6.18
2022-12-23T15:13:31.849Z,5.80
2022-12-23T15:16:02.135Z,5.50
2022-12-23T15:18:29.934Z,5.38
2022-12-23T15:21:04.690Z,5.60
2022-12-23T15:23:33.300Z,5.63
2022-12-23T15:26:02.414Z,6.00
2022-12-23T15:28:41.840Z,5.95
2022-12-23T15:31:42.698Z,6.50
2022-12-23T15:34:21.967Z,6.50
2022-12-23T15:36:54.450Z,6.28
2022-12-23T15:39:33.992Z,7.10
2022-12-23T15:42:01.877Z,6.97
2022-12-23T15:44:39.725Z,7.55
2022-12-23T15:47:38.615Z,7.75
2022-12-23T15:50:15.422Z,7.88
2022-12-23T15:52:47.531Z,9.27
2022-12-23T15:55:28.342Z,9.32
2022-12-23T15:57:56.858Z,8.68
2022-12-23T16:00:57.630Z,9.35
2022-12-23T16:03:39.025Z,9.27
2022-12-23T16:06:16.604Z,9.10
2022-12-23T16:08:45.747Z,8.93
2022-12-23T16:11:20.318Z,8.98
2022-12-23T16:14:00.455Z,9.32
2022-12-23T16:16:39.182Z,11.02
2022-12-23T16:19:49.082Z,11.23
2022-12-23T16:22:37.912Z,11.00
2022-12-23T16:25:16.176Z,11.50
2022-12-23T16:27:56.334Z,12.40
2022-12-23T16:30:32.390Z,13.45
2022-12-23T16:33:04.329Z,14.35
2022-12-23T16:35:40.400Z,14.40
2022-12-23T16:38:21.870Z,12.88
2022-12-23T16:40:55.590Z,14.68
2022-12-23T16:43:24.999Z,14.95
2022-12-23T16:45:56.785Z,16.17
2022-12-23T16:48:36.426Z,15.80
2022-12-23T16:51:20.288Z,13.18
2022-12-23T16:53:49.762Z,13.80
2022-12-23T16:56:20.894Z,11.00
2022-12-23T16:58:48.798Z,10.50
2022-12-23T17:01:23.022Z,9.50
2022-12-23T17:03:51.374Z,8.90
2022-12-23T17:06:20.678Z,7.47
2022-12-23T17:08:49.266Z,7.15
2022-12-23T17:11:42.103Z,6.63
2022-12-23T17:14:23.473Z,5.15
2022-12-23T17:16:51.683Z,5.20
2022-12-23T17:19:25.609Z,4.45
2022-12-23T17:22:02.687Z,4.93
2022-12-23T17:24:30.259Z,4.28
2022-12-23T17:26:58.189Z,4.90
2022-12-23T17:29:25.796Z,5.32
2022-12-23T17:31:53.617Z,5.00
2022-12-23T17:34:24.280Z,5.50
2022-12-23T17:36:52.835Z,5.80
2022-12-23T17:39:21.876Z,6.18
2022-12-23T17:41:49.934Z,5.68
2022-12-23T17:44:18.268Z,5.38
2022-12-23T17:46:47.118Z,6.30
2022-12-23T17:49:14.883Z,6.40
2022-12-23T17:51:43.175Z,6.70
2022-12-23T17:54:23.212Z,6.95
2022-12-23T17:56:51.434Z,7.57
2022-12-23T17:59:19.092Z,8.73
2022-12-23T18:01:46.857Z,9.20
2022-12-23T18:04:14.367Z,9.63
2022-12-23T18:06:41.947Z,10.13
2022-12-23T18:09:09.387Z,10.05
2022-12-23T18:11:43.759Z,11.05
2022-12-23T18:14:24.406Z,10.35
2022-12-23T18:16:51.855Z,9.50
2022-12-23T18:19:21.005Z,9.45
2022-12-23T18:21:51.069Z,10.13
2022-12-23T18:24:18.693Z,8.55
2022-12-23T18:26:47.499Z,8.82
2022-12-23T18:29:15.095Z,7.93
2022-12-23T18:31:52.081Z,8.70
2022-12-23T18:34:21.138Z,8.45
2022-12-23T18:36:51.365Z,7.70
2022-12-23T18:39:19.751Z,6.93
2022-12-23T18:41:48.626Z,8.27
2022-12-23T18:44:20.938Z,8.00
2022-12-23T18:46:49.582Z,7.72
2022-12-23T18:49:17.241Z,8.55
2022-12-23T18:51:45.271Z,8.02
2022-12-23T18:54:15.796Z,8.48
2022-12-23T18:56:43.548Z,8.00
2022-12-23T18:59:29.315Z,8.65
2022-12-23T19:01:58.749Z,8.45
2022-12-23T19:04:27.405Z,9.35
2022-12-23T19:06:56.696Z,7.88
2022-12-23T19:09:25.237Z,7.55
2022-12-23T19:11:54.316Z,8.05
2022-12-23T19:14:22.269Z,7.93
2022-12-23T19:16:52.434Z,8.30
2022-12-23T19:19:21.744Z,7.80
2022-12-23T19:21:49.328Z,8.15
2022-12-23T19:24:17.231Z,7.63
2022-12-23T19:26:44.897Z,9.00
2022-12-23T19:29:13.891Z,8.82
2022-12-23T19:31:41.416Z,7.95
2022-12-23T19:34:15.371Z,8.73
2022-12-23T19:36:44.238Z,7.95
2022-12-23T19:39:16.311Z,7.47
2022-12-23T19:41:45.321Z,7.43
2022-12-23T19:44:13.139Z,7.10
2022-12-23T19:46:40.825Z,6.80
2022-12-23T19:49:17.468Z,7.53
2022-12-23T19:51:47.539Z,6.68
2022-12-23T19:54:15.495Z,7.15
2022-12-23T19:56:43.063Z,5.75
2022-12-23T19:59:10.738Z,6.57
2022-12-23T20:01:38.195Z,6.97
2022-12-23T20:04:05.659Z,6.85
2022-12-23T20:06:38.252Z,7.30
2022-12-23T20:09:09.569Z,6.03
2022-12-23T20:11:42.477Z,7.57
2022-12-23T20:14:11.898Z,8.70
2022-12-23T20:16:40.422Z,7.55
2022-12-23T20:19:07.919Z,7.60
2022-12-23T20:21:37.358Z,8.43
2022-12-23T20:24:05.946Z,9.13
2022-12-23T20:26:33.830Z,9.52
2022-12-23T20:29:01.286Z,9.00
2022-12-23T20:31:32.365Z,9.30
2022-12-23T20:34:03.310Z,8.60
2022-12-23T20:36:35.490Z,9.03
2022-12-23T20:39:06.834Z,8.07
2022-12-23T20:41:34.986Z,8.63
2022-12-23T20:44:33.347Z,8.43
2022-12-23T20:46:50.353Z,7.20
2022-12-23T20:49:17.924Z,6.72
2022-12-23T20:51:45.431Z,7.18
2022-12-23T20:54:12.957Z,6.43
2022-12-23T20:56:40.518Z,7.00
2022-12-23T20:59:08.112Z,6.38
2022-12-23T21:01:39.445Z,7.47
2022-12-23T21:04:17.808Z,6.43
2022-12-23T21:06:45.628Z,5.80
2022-12-23T21:09:15.156Z,6.97
2022-12-23T21:11:49.190Z,6.32
2022-12-23T21:14:19.459Z,5.30
2022-12-23T21:16:47.133Z,6.28
2022-12-23T21:19:19.894Z,6.05
2022-12-23T21:21:48.707Z,5.35
2022-12-23T21:24:17.536Z,5.57
2022-12-23T21:26:49.029Z,4.80
2022-12-23T21:29:20.554Z,5.22
2022-12-23T21:31:48.129Z,4.25
2022-12-23T21:34:15.689Z,4.68
2022-12-23T21:36:43.795Z,5.15
2022-12-23T21:39:15.917Z,5.40
2022-12-23T21:41:43.775Z,4.00
2022-12-23T21:44:15.513Z,4.25
2022-12-23T21:46:43.225Z,4.55
2022-12-23T21:49:11.403Z,4.55
2022-12-23T21:51:41.063Z,4.35
2022-12-23T21:54:11.777Z,3.60
2022-12-23T21:56:41.016Z,3.80
2022-12-23T21:59:13.955Z,4.78
2022-12-23T22:01:43.539Z,3.28
2022-12-23T22:04:12.142Z,4.75
2022-12-23T22:06:44.756Z,3.53
2022-12-23T22:09:18.823Z,4.05
2022-12-23T22:11:48.036Z,4.55
2022-12-23T22:14:19.643Z,4.43
2022-12-23T22:16:47.301Z,4.47
2022-12-23T22:19:15.048Z,3.25
2022-12-23T22:22:12.173Z,4.40
2022-12-23T22:24:48.273Z,5.10
2022-12-23T22:27:15.920Z,4.55
2022-12-23T22:29:45.682Z,4.28
2022-12-23T22:32:13.213Z,4.95
2022-12-23T22:34:40.717Z,5.00
2022-12-23T22:37:08.248Z,5.00
2022-12-23T22:39:35.728Z,4.72
2022-12-23T22:42:03.223Z,5.45
2022-12-23T22:44:30.672Z,4.43
2022-12-23T22:46:58.325Z,4.93
2022-12-23T22:49:26.188Z,5.20
2022-12-23T22:51:53.784Z,5.82
2022-12-23T22:54:21.274Z,4.97
2022-12-23T22:56:48.829Z,5.45
2022-12-23T22:59:26.977Z,6.43
2022-12-23T23:01:56.894Z,4.78
2022-12-23T23:04:24.340Z,5.60
2022-12-23T23:06:51.882Z,6.13
2022-12-23T23:09:21.920Z,5.18
2022-12-23T23:11:50.454Z,5.50
2022-12-23T23:14:18.748Z,5.10
2022-12-23T23:16:46.345Z,5.70
2022-12-23T23:19:15.161Z,5.97
2022-12-23T23:21:42.776Z,4.90
2022-12-23T23:24:11.858Z,5.32
2022-12-23T23:26:39.430Z,6.18
2022-12-23T23:29:06.906Z,5.57
2022-12-23T23:31:43.362Z,4.68
2022-12-23T23:34:12.810Z,5.35
2022-12-23T23:36:41.604Z,5.20
2022-12-23T23:39:12.110Z,5.10
2022-12-23T23:41:41.073Z,5.07
2022-12-23T23:44:09.519Z,4.93
2022-12-23T23:46:38.038Z,5.40
2022-12-23T23:49:06.024Z,5.97
2022-12-23T23:51:33.483Z,5.57
2022-12-23T23:54:01.074Z,5.25
2022-12-23T23:56:33.867Z,6.13
2022-12-23T23:59:05.437Z,5.80
